sensor_id;sensor_type;location;lat;lon;timestamp;temperature;humidity
33023;DHT22;19390;51.460;5.710;2022-07-23T00:00:16;15.80;99.90
33023;DHT22;19390;51.460;5.710;2022-07-23T00:02:42;15.70;99.90
33023;DHT22;19390;51.460;5.710;2022-07-23T00:05:08;15.70;99.90
33023;DHT22;19390;51.460;5.710;2022-07-23T00:07:34;15.60;99.90
33023;DHT22;19390;51.460;5.710;2022-07-23T00:10:00;15.50;99.90
33023;DHT22;19390;51.460;5.710;2022-07-23T00:12:25;15.50;99.90
33023;DHT22;19390;51.460;5.710;2022-07-23T00:14:51;15.40;99.90
33023;DHT22;19390;51.460;5.710;2022-07-23T00:17:17;15.40;99.90
33023;DHT22;19390;51.460;5.710;2022-07-23T00:19:42;15.40;99.90
33023;DHT22;19390;51.460;5.710;2022-07-23T00:22:08;15.30;99.90
33023;DHT22;19390;51.460;5.710;2022-07-23T00:24:34;15.20;99.90
33023;DHT22;19390;51.460;5.710;2022-07-23T00:26:59;15.20;99.90
33023;DHT22;19390;51.460;5.710;2022-07-23T00:29:25;15.10;99.90
33023;DHT22;19390;51.460;5.710;2022-07-23T00:31:50;15.00;99.90
33023;DHT22;19390;51.460;5.710;2022-07-23T00:34:16;14.90;99.90
33023;DHT22;19390;51.460;5.710;2022-07-23T00:36:42;14.90;99.90
33023;DHT22;19390;51.460;5.710;2022-07-23T00:39:07;14.90;99.90
33023;DHT22;19390;51.460;5.710;2022-07-23T00:41:33;14.90;99.90
33023;DHT22;19390;51.460;5.710;2022-07-23T00:44:22;14.90;99.90
33023;DHT22;19390;51.460;5.710;2022-07-23T00:46:58;14.90;99.90
33023;DHT22;19390;51.460;5.710;2022-07-23T00:49:26;14.80;99.90
33023;DHT22;19390;51.460;5.710;2022-07-23T00:51:53;14.70;99.90
33023;DHT22;19390;51.460;5.710;2022-07-23T00:54:22;14.60;99.90
33023;DHT22;19390;51.460;5.710;2022-07-23T00:56:48;14.50;99.90
33023;DHT22;19390;51.460;5.710;2022-07-23T00:59:14;14.50;99.90
33023;DHT22;19390;51.460;5.710;2022-07-23T01:01:41;14.50;99.90
33023;DHT22;19390;51.460;5.710;2022-07-23T01:04:06;14.50;99.90
33023;DHT22;19390;51.460;5.710;2022-07-23T01:06:37;14.50;99.90
33023;DHT22;19390;51.460;5.710;2022-07-23T01:09:04;14.40;99.90
33023;DHT22;19390;51.460;5.710;2022-07-23T01:11:34;14.40;99.90
33023;DHT22;19390;51.460;5.710;2022-07-23T01:14:08;14.50;99.90
33023;DHT22;19390;51.460;5.710;2022-07-23T01:16:34;14.40;99.90
33023;DHT22;19390;51.460;5.710;2022-07-23T01:18:59;14.40;99.90
33023;DHT22;19390;51.460;5.710;2022-07-23T01:21:25;14.50;99.90
33023;DHT22;19390;51.460;5.710;2022-07-23T01:23:51;14.50;99.90
33023;DHT22;19390;51.460;5.710;2022-07-23T01:26:16;14.50;99.90
33023;DHT22;19390;51.460;5.710;2022-07-23T01:28:42;14.40;99.90
33023;DHT22;19390;51.460;5.710;2022-07-23T01:31:08;14.40;99.90
33023;DHT22;19390;51.460;5.710;2022-07-23T01:33:34;14.40;99.90
33023;DHT22;19390;51.460;5.710;2022-07-23T01:35:59;14.40;99.90
33023;DHT22;19390;51.460;5.710;2022-07-23T01:38:25;14.40;99.90
33023;DHT22;19390;51.460;5.710;2022-07-23T01:40:51;14.30;99.90
33023;DHT22;19390;51.460;5.710;2022-07-23T01:43:16;14.20;99.90
33023;DHT22;19390;51.460;5.710;2022-07-23T01:45:42;14.20;99.90
33023;DHT22;19390;51.460;5.710;2022-07-23T01:48:09;14.20;99.90
33023;DHT22;19390;51.460;5.710;2022-07-23T01:50:35;14.20;99.90
33023;DHT22;19390;51.460;5.710;2022-07-23T01:53:01;14.00;99.90
33023;DHT22;19390;51.460;5.710;2022-07-23T01:55:26;13.90;99.90
33023;DHT22;19390;51.460;5.710;2022-07-23T01:57:52;13.90;99.90
33023;DHT22;19390;51.460;5.710;2022-07-23T02:00:17;13.90;99.90
33023;DHT22;19390;51.460;5.710;2022-07-23T02:02:43;13.90;99.90
33023;DHT22;19390;51.460;5.710;2022-07-23T02:05:09;14.00;99.90
33023;DHT22;19390;51.460;5.710;2022-07-23T02:07:34;14.00;99.90
33023;DHT22;19390;51.460;5.710;2022-07-23T02:10:00;14.00;99.90
33023;DHT22;19390;51.460;5.710;2022-07-23T02:12:25;13.90;99.90
33023;DHT22;19390;51.460;5.710;2022-07-23T02:14:51;13.80;99.90
33023;DHT22;19390;51.460;5.710;2022-07-23T02:17:17;13.80;99.90
33023;DHT22;19390;51.460;5.710;2022-07-23T02:19:42;13.80;99.90
33023;DHT22;19390;51.460;5.710;2022-07-23T02:22:08;13.80;99.90
33023;DHT22;19390;51.460;5.710;2022-07-23T02:24:34;13.80;99.90
33023;DHT22;19390;51.460;5.710;2022-07-23T02:26:59;13.80;99.90
33023;DHT22;19390;51.460;5.710;2022-07-23T02:29:25;13.80;99.90
33023;DHT22;19390;51.460;5.710;2022-07-23T02:31:50;13.80;99.90
33023;DHT22;19390;51.460;5.710;2022-07-23T02:34:16;13.80;99.90
33023;DHT22;19390;51.460;5.710;2022-07-23T02:36:41;13.60;99.90
33023;DHT22;19390;51.460;5.710;2022-07-23T02:39:07;13.60;99.90
33023;DHT22;19390;51.460;5.710;2022-07-23T02:41:33;13.50;99.90
33023;DHT22;19390;51.460;5.710;2022-07-23T02:43:59;13.50;99.90
33023;DHT22;19390;51.460;5.710;2022-07-23T02:46:24;13.40;99.90
33023;DHT22;19390;51.460;5.710;2022-07-23T02:48:50;13.30;99.90
33023;DHT22;19390;51.460;5.710;2022-07-23T02:51:15;13.20;99.90
33023;DHT22;19390;51.460;5.710;2022-07-23T02:53:41;13.20;99.90
33023;DHT22;19390;51.460;5.710;2022-07-23T02:56:07;13.00;99.90
33023;DHT22;19390;51.460;5.710;2022-07-23T02:58:32;13.00;99.90
33023;DHT22;19390;51.460;5.710;2022-07-23T03:00:58;13.00;99.90
33023;DHT22;19390;51.460;5.710;2022-07-23T03:03:24;13.00;99.90
33023;DHT22;19390;51.460;5.710;2022-07-23T03:05:49;13.00;99.90
33023;DHT22;19390;51.460;5.710;2022-07-23T03:08:15;12.90;99.90
33023;DHT22;19390;51.460;5.710;2022-07-23T03:10:41;12.80;99.90
33023;DHT22;19390;51.460;5.710;2022-07-23T03:13:06;12.80;99.90
33023;DHT22;19390;51.460;5.710;2022-07-23T03:15:32;12.80;99.90
33023;DHT22;19390;51.460;5.710;2022-07-23T03:17:58;12.80;99.90
33023;DHT22;19390;51.460;5.710;2022-07-23T03:20:23;12.80;99.90
33023;DHT22;19390;51.460;5.710;2022-07-23T03:22:49;12.80;99.90
33023;DHT22;19390;51.460;5.710;2022-07-23T03:25:14;12.80;99.90
33023;DHT22;19390;51.460;5.710;2022-07-23T03:27:40;12.80;99.90
33023;DHT22;19390;51.460;5.710;2022-07-23T03:30:06;12.70;99.90
33023;DHT22;19390;51.460;5.710;2022-07-23T03:32:32;12.80;99.90
33023;DHT22;19390;51.460;5.710;2022-07-23T03:34:58;12.90;99.90
33023;DHT22;19390;51.460;5.710;2022-07-23T03:37:24;12.90;99.90
33023;DHT22;19390;51.460;5.710;2022-07-23T03:39:50;13.00;99.90
33023;DHT22;19390;51.460;5.710;2022-07-23T03:42:16;13.00;99.90
33023;DHT22;19390;51.460;5.710;2022-07-23T03:44:41;13.00;99.90
33023;DHT22;19390;51.460;5.710;2022-07-23T03:47:07;13.10;99.90
33023;DHT22;19390;51.460;5.710;2022-07-23T03:49:33;13.00;99.90
33023;DHT22;19390;51.460;5.710;2022-07-23T03:51:58;13.00;99.90
33023;DHT22;19390;51.460;5.710;2022-07-23T03:54:24;12.90;99.90
33023;DHT22;19390;51.460;5.710;2022-07-23T03:56:49;12.90;99.90
33023;DHT22;19390;51.460;5.710;2022-07-23T03:59:15;12.90;99.90
33023;DHT22;19390;51.460;5.710;2022-07-23T04:01:42;12.80;99.90
33023;DHT22;19390;51.460;5.710;2022-07-23T04:04:08;12.80;99.90
33023;DHT22;19390;51.460;5.710;2022-07-23T04:06:34;12.70;99.90
33023;DHT22;19390;51.460;5.710;2022-07-23T04:09:00;12.70;99.90
33023;DHT22;19390;51.460;5.710;2022-07-23T04:11:26;12.80;99.90
33023;DHT22;19390;51.460;5.710;2022-07-23T04:13:51;12.80;99.90
33023;DHT22;19390;51.460;5.710;2022-07-23T04:16:17;12.80;99.90
33023;DHT22;19390;51.460;5.710;2022-07-23T04:18:43;12.80;99.90
33023;DHT22;19390;51.460;5.710;2022-07-23T04:21:08;12.80;99.90
33023;DHT22;19390;51.460;5.710;2022-07-23T04:23:34;12.80;99.90
33023;DHT22;19390;51.460;5.710;2022-07-23T04:25:59;12.80;99.90
33023;DHT22;19390;51.460;5.710;2022-07-23T04:28:25;12.80;99.90
33023;DHT22;19390;51.460;5.710;2022-07-23T04:30:51;13.00;99.90
33023;DHT22;19390;51.460;5.710;2022-07-23T04:33:16;13.10;99.90
33023;DHT22;19390;51.460;5.710;2022-07-23T04:35:42;13.20;99.90
33023;DHT22;19390;51.460;5.710;2022-07-23T04:38:08;13.30;99.90
33023;DHT22;19390;51.460;5.710;2022-07-23T04:40:33;13.30;99.90
33023;DHT22;19390;51.460;5.710;2022-07-23T04:42:59;13.30;99.90
33023;DHT22;19390;51.460;5.710;2022-07-23T04:45:24;13.40;99.90
33023;DHT22;19390;51.460;5.710;2022-07-23T04:47:50;13.40;99.90
33023;DHT22;19390;51.460;5.710;2022-07-23T04:50:16;13.50;99.90
33023;DHT22;19390;51.460;5.710;2022-07-23T04:52:49;13.60;99.90
33023;DHT22;19390;51.460;5.710;2022-07-23T04:55:15;13.80;99.90
33023;DHT22;19390;51.460;5.710;2022-07-23T04:57:41;13.90;99.90
33023;DHT22;19390;51.460;5.710;2022-07-23T05:00:07;14.00;99.90
33023;DHT22;19390;51.460;5.710;2022-07-23T05:02:33;14.00;99.90
33023;DHT22;19390;51.460;5.710;2022-07-23T05:04:58;14.20;99.90
33023;DHT22;19390;51.460;5.710;2022-07-23T05:07:24;15.10;99.90
33023;DHT22;19390;51.460;5.710;2022-07-23T05:09:49;15.90;99.90
33023;DHT22;19390;51.460;5.710;2022-07-23T05:12:15;17.00;99.90
33023;DHT22;19390;51.460;5.710;2022-07-23T05:14:41;17.70;99.90
33023;DHT22;19390;51.460;5.710;2022-07-23T05:17:07;17.60;99.90
33023;DHT22;19390;51.460;5.710;2022-07-23T05:19:33;18.30;99.90
33023;DHT22;19390;51.460;5.710;2022-07-23T05:21:59;19.00;99.90
33023;DHT22;19390;51.460;5.710;2022-07-23T05:24:25;19.30;99.90
33023;DHT22;19390;51.460;5.710;2022-07-23T05:26:50;19.50;99.90
33023;DHT22;19390;51.460;5.710;2022-07-23T05:29:16;20.20;99.90
33023;DHT22;19390;51.460;5.710;2022-07-23T05:31:42;20.40;99.90
33023;DHT22;19390;51.460;5.710;2022-07-23T05:34:07;20.80;99.90
33023;DHT22;19390;51.460;5.710;2022-07-23T05:36:33;21.10;99.90
33023;DHT22;19390;51.460;5.710;2022-07-23T05:38:59;21.70;99.90
33023;DHT22;19390;51.460;5.710;2022-07-23T05:41:24;21.50;99.90
33023;DHT22;19390;51.460;5.710;2022-07-23T05:43:50;22.60;99.90
33023;DHT22;19390;51.460;5.710;2022-07-23T05:46:16;22.10;99.90
33023;DHT22;19390;51.460;5.710;2022-07-23T05:48:41;22.00;99.90
33023;DHT22;19390;51.460;5.710;2022-07-23T05:51:24;22.80;99.90
33023;DHT22;19390;51.460;5.710;2022-07-23T05:53:51;23.10;99.90
33023;DHT22;19390;51.460;5.710;2022-07-23T05:56:17;23.20;99.90
33023;DHT22;19390;51.460;5.710;2022-07-23T05:58:43;23.50;99.90
33023;DHT22;19390;51.460;5.710;2022-07-23T06:01:09;23.50;99.90
33023;DHT22;19390;51.460;5.710;2022-07-23T06:03:34;23.80;99.90
33023;DHT22;19390;51.460;5.710;2022-07-23T06:06:00;23.50;99.90
33023;DHT22;19390;51.460;5.710;2022-07-23T06:08:26;23.70;99.90
33023;DHT22;19390;51.460;5.710;2022-07-23T06:10:51;24.40;99.90
33023;DHT22;19390;51.460;5.710;2022-07-23T06:13:18;24.10;99.90
33023;DHT22;19390;51.460;5.710;2022-07-23T06:15:44;24.10;99.90
33023;DHT22;19390;51.460;5.710;2022-07-23T06:18:09;25.30;99.90
33023;DHT22;19390;51.460;5.710;2022-07-23T06:20:35;25.70;99.90
33023;DHT22;19390;51.460;5.710;2022-07-23T06:23:01;26.30;99.90
33023;DHT22;19390;51.460;5.710;2022-07-23T06:25:26;25.40;99.90
33023;DHT22;19390;51.460;5.710;2022-07-23T06:27:52;25.90;99.90
33023;DHT22;19390;51.460;5.710;2022-07-23T06:30:17;26.40;99.90
33023;DHT22;19390;51.460;5.710;2022-07-23T06:32:44;26.80;99.90
33023;DHT22;19390;51.460;5.710;2022-07-23T06:35:10;26.70;99.90
33023;DHT22;19390;51.460;5.710;2022-07-23T06:37:36;26.70;99.90
33023;DHT22;19390;51.460;5.710;2022-07-23T06:40:02;27.60;99.90
33023;DHT22;19390;51.460;5.710;2022-07-23T06:42:28;27.20;99.90
33023;DHT22;19390;51.460;5.710;2022-07-23T06:44:53;26.80;99.90
33023;DHT22;19390;51.460;5.710;2022-07-23T06:47:19;27.50;99.90
33023;DHT22;19390;51.460;5.710;2022-07-23T06:49:44;26.60;99.90
33023;DHT22;19390;51.460;5.710;2022-07-23T06:52:10;27.70;99.90
33023;DHT22;19390;51.460;5.710;2022-07-23T06:54:36;28.70;99.90
33023;DHT22;19390;51.460;5.710;2022-07-23T06:57:01;29.00;99.90
33023;DHT22;19390;51.460;5.710;2022-07-23T06:59:27;28.00;99.90
33023;DHT22;19390;51.460;5.710;2022-07-23T07:01:52;28.50;99.90
33023;DHT22;19390;51.460;5.710;2022-07-23T07:04:18;28.30;99.90
33023;DHT22;19390;51.460;5.710;2022-07-23T07:06:44;27.30;99.90
33023;DHT22;19390;51.460;5.710;2022-07-23T07:09:09;27.40;99.90
33023;DHT22;19390;51.460;5.710;2022-07-23T07:11:35;28.80;99.90
33023;DHT22;19390;51.460;5.710;2022-07-23T07:14:01;27.30;99.90
33023;DHT22;19390;51.460;5.710;2022-07-23T07:16:26;27.90;99.90
33023;DHT22;19390;51.460;5.710;2022-07-23T07:18:52;28.30;99.90
33023;DHT22;19390;51.460;5.710;2022-07-23T07:21:17;28.00;99.90
33023;DHT22;19390;51.460;5.710;2022-07-23T07:23:43;28.60;99.90
33023;DHT22;19390;51.460;5.710;2022-07-23T07:26:09;27.80;99.90
33023;DHT22;19390;51.460;5.710;2022-07-23T07:28:34;28.60;99.90
33023;DHT22;19390;51.460;5.710;2022-07-23T07:31:00;28.90;99.90
33023;DHT22;19390;51.460;5.710;2022-07-23T07:33:26;30.70;99.90
33023;DHT22;19390;51.460;5.710;2022-07-23T07:35:51;30.00;99.90
33023;DHT22;19390;51.460;5.710;2022-07-23T07:38:17;30.10;99.90
33023;DHT22;19390;51.460;5.710;2022-07-23T07:40:42;30.10;99.90
33023;DHT22;19390;51.460;5.710;2022-07-23T07:43:08;29.80;99.90
33023;DHT22;19390;51.460;5.710;2022-07-23T07:45:34;30.70;99.90
33023;DHT22;19390;51.460;5.710;2022-07-23T07:47:59;28.00;99.90
33023;DHT22;19390;51.460;5.710;2022-07-23T07:50:25;26.30;99.90
33023;DHT22;19390;51.460;5.710;2022-07-23T07:52:50;28.10;99.90
33023;DHT22;19390;51.460;5.710;2022-07-23T07:55:16;26.20;99.90
33023;DHT22;19390;51.460;5.710;2022-07-23T07:57:42;26.90;99.90
33023;DHT22;19390;51.460;5.710;2022-07-23T08:00:09;29.60;99.90
33023;DHT22;19390;51.460;5.710;2022-07-23T08:05:11;29.80;99.90
33023;DHT22;19390;51.460;5.710;2022-07-23T08:07:37;28.30;99.90
33023;DHT22;19390;51.460;5.710;2022-07-23T08:10:05;27.80;99.90
33023;DHT22;19390;51.460;5.710;2022-07-23T08:12:39;27.60;99.90
33023;DHT22;19390;51.460;5.710;2022-07-23T08:15:05;29.20;99.90
33023;DHT22;19390;51.460;5.710;2022-07-23T08:17:31;31.60;99.90
33023;DHT22;19390;51.460;5.710;2022-07-23T08:19:57;31.70;99.90
33023;DHT22;19390;51.460;5.710;2022-07-23T08:22:22;31.70;99.90
33023;DHT22;19390;51.460;5.710;2022-07-23T08:24:48;32.00;99.90
33023;DHT22;19390;51.460;5.710;2022-07-23T08:27:13;31.90;99.90
33023;DHT22;19390;51.460;5.710;2022-07-23T08:29:39;31.70;99.90
33023;DHT22;19390;51.460;5.710;2022-07-23T08:32:05;29.30;99.90
33023;DHT22;19390;51.460;5.710;2022-07-23T08:34:30;29.80;99.90
33023;DHT22;19390;51.460;5.710;2022-07-23T08:36:56;29.50;99.90
33023;DHT22;19390;51.460;5.710;2022-07-23T08:39:21;30.60;99.90
33023;DHT22;19390;51.460;5.710;2022-07-23T08:41:47;31.30;99.90
33023;DHT22;19390;51.460;5.710;2022-07-23T08:44:16;32.20;99.90
33023;DHT22;19390;51.460;5.710;2022-07-23T08:46:41;32.50;99.90
33023;DHT22;19390;51.460;5.710;2022-07-23T08:49:08;32.40;99.90
33023;DHT22;19390;51.460;5.710;2022-07-23T08:51:34;33.00;99.90
33023;DHT22;19390;51.460;5.710;2022-07-23T08:54:00;33.40;99.90
33023;DHT22;19390;51.460;5.710;2022-07-23T08:56:26;32.10;99.90
33023;DHT22;19390;51.460;5.710;2022-07-23T08:58:54;31.60;99.90
33023;DHT22;19390;51.460;5.710;2022-07-23T09:01:20;32.00;99.90
33023;DHT22;19390;51.460;5.710;2022-07-23T09:03:45;30.30;99.90
33023;DHT22;19390;51.460;5.710;2022-07-23T09:06:11;31.50;99.90
33023;DHT22;19390;51.460;5.710;2022-07-23T09:11:05;30.30;99.90
33023;DHT22;19390;51.460;5.710;2022-07-23T09:13:52;32.20;99.90
33023;DHT22;19390;51.460;5.710;2022-07-23T09:16:23;31.40;99.90
33023;DHT22;19390;51.460;5.710;2022-07-23T09:18:50;31.90;99.90
33023;DHT22;19390;51.460;5.710;2022-07-23T09:21:31;32.50;99.90
33023;DHT22;19390;51.460;5.710;2022-07-23T09:24:08;32.50;99.90
33023;DHT22;19390;51.460;5.710;2022-07-23T09:26:39;32.10;99.90
33023;DHT22;19390;51.460;5.710;2022-07-23T09:31:47;32.60;99.90
33023;DHT22;19390;51.460;5.710;2022-07-23T09:34:18;32.70;99.90
33023;DHT22;19390;51.460;5.710;2022-07-23T09:36:44;32.70;99.90
33023;DHT22;19390;51.460;5.710;2022-07-23T09:39:11;31.60;99.90
33023;DHT22;19390;51.460;5.710;2022-07-23T09:41:43;31.10;99.90
33023;DHT22;19390;51.460;5.710;2022-07-23T09:44:17;31.30;99.90
33023;DHT22;19390;51.460;5.710;2022-07-23T09:46:48;32.20;99.90
33023;DHT22;19390;51.460;5.710;2022-07-23T09:49:21;32.60;99.90
33023;DHT22;19390;51.460;5.710;2022-07-23T09:51:55;30.60;99.90
33023;DHT22;19390;51.460;5.710;2022-07-23T09:56:48;30.00;99.90
33023;DHT22;19390;51.460;5.710;2022-07-23T09:59:15;29.70;99.90
33023;DHT22;19390;51.460;5.710;2022-07-23T10:01:43;31.50;99.90
33023;DHT22;19390;51.460;5.710;2022-07-23T10:04:11;33.20;99.90
33023;DHT22;19390;51.460;5.710;2022-07-23T10:06:39;33.30;99.90
33023;DHT22;19390;51.460;5.710;2022-07-23T10:09:05;33.00;99.90
33023;DHT22;19390;51.460;5.710;2022-07-23T10:11:33;32.10;99.90
33023;DHT22;19390;51.460;5.710;2022-07-23T10:14:00;32.60;99.90
33023;DHT22;19390;51.460;5.710;2022-07-23T10:16:28;32.70;99.90
33023;DHT22;19390;51.460;5.710;2022-07-23T10:18:54;32.00;99.90
33023;DHT22;19390;51.460;5.710;2022-07-23T10:21:41;32.30;99.90
33023;DHT22;19390;51.460;5.710;2022-07-23T10:24:12;32.10;99.90
33023;DHT22;19390;51.460;5.710;2022-07-23T10:29:47;31.30;99.90
33023;DHT22;19390;51.460;5.710;2022-07-23T10:35:44;32.10;99.90
33023;DHT22;19390;51.460;5.710;2022-07-23T10:41:33;32.80;99.90
33023;DHT22;19390;51.460;5.710;2022-07-23T10:44:07;32.10;99.90
33023;DHT22;19390;51.460;5.710;2022-07-23T10:46:33;32.60;99.90
33023;DHT22;19390;51.460;5.710;2022-07-23T10:49:32;33.00;99.90
33023;DHT22;19390;51.460;5.710;2022-07-23T10:52:17;32.80;99.90
33023;DHT22;19390;51.460;5.710;2022-07-23T10:57:50;33.90;99.90
33023;DHT22;19390;51.460;5.710;2022-07-23T11:00:20;33.80;99.90
33023;DHT22;19390;51.460;5.710;2022-07-23T11:02:48;33.90;99.90
33023;DHT22;19390;51.460;5.710;2022-07-23T11:05:20;32.70;98.60
33023;DHT22;19390;51.460;5.710;2022-07-23T11:10:44;34.10;97.20
33023;DHT22;19390;51.460;5.710;2022-07-23T11:13:25;34.00;99.70
33023;DHT22;19390;51.460;5.710;2022-07-23T11:32:03;32.90;98.80
33023;DHT22;19390;51.460;5.710;2022-07-23T11:36:59;33.70;99.60
33023;DHT22;19390;51.460;5.710;2022-07-23T11:39:26;33.40;97.30
33023;DHT22;19390;51.460;5.710;2022-07-23T11:41:53;33.60;97.10
33023;DHT22;19390;51.460;5.710;2022-07-23T11:44:36;34.20;97.40
33023;DHT22;19390;51.460;5.710;2022-07-23T11:47:07;32.80;98.90
33023;DHT22;19390;51.460;5.710;2022-07-23T11:49:33;33.70;98.70
33023;DHT22;19390;51.460;5.710;2022-07-23T11:52:09;34.50;97.80
33023;DHT22;19390;51.460;5.710;2022-07-23T11:54:37;33.90;97.10
33023;DHT22;19390;51.460;5.710;2022-07-23T11:57:11;34.20;99.30
33023;DHT22;19390;51.460;5.710;2022-07-23T11:59:38;33.90;97.30
33023;DHT22;19390;51.460;5.710;2022-07-23T12:02:05;34.00;98.70
33023;DHT22;19390;51.460;5.710;2022-07-23T12:04:52;34.60;96.50
33023;DHT22;19390;51.460;5.710;2022-07-23T12:07:28;33.50;97.60
33023;DHT22;19390;51.460;5.710;2022-07-23T12:09:55;30.00;99.60
33023;DHT22;19390;51.460;5.710;2022-07-23T12:12:21;32.70;99.70
33023;DHT22;19390;51.460;5.710;2022-07-23T12:14:58;33.40;99.30
33023;DHT22;19390;51.460;5.710;2022-07-23T12:17:30;33.00;98.30
33023;DHT22;19390;51.460;5.710;2022-07-23T12:19:57;31.90;98.00
33023;DHT22;19390;51.460;5.710;2022-07-23T12:22:25;32.40;99.20
33023;DHT22;19390;51.460;5.710;2022-07-23T12:24:56;33.90;98.90
33023;DHT22;19390;51.460;5.710;2022-07-23T12:27:23;35.40;97.40
33023;DHT22;19390;51.460;5.710;2022-07-23T12:29:49;34.20;97.30
33023;DHT22;19390;51.460;5.710;2022-07-23T12:32:19;33.90;97.30
33023;DHT22;19390;51.460;5.710;2022-07-23T12:34:49;33.30;98.40
33023;DHT22;19390;51.460;5.710;2022-07-23T12:37:35;34.60;97.00
33023;DHT22;19390;51.460;5.710;2022-07-23T12:42:50;33.80;96.50
33023;DHT22;19390;51.460;5.710;2022-07-23T12:45:16;34.10;95.20
33023;DHT22;19390;51.460;5.710;2022-07-23T12:47:56;35.10;96.10
33023;DHT22;19390;51.460;5.710;2022-07-23T12:53:09;34.00;94.80
33023;DHT22;19390;51.460;5.710;2022-07-23T12:55:36;34.00;95.70
33023;DHT22;19390;51.460;5.710;2022-07-23T13:03:36;32.80;97.20
33023;DHT22;19390;51.460;5.710;2022-07-23T13:06:04;32.10;96.40
33023;DHT22;19390;51.460;5.710;2022-07-23T13:08:31;29.60;99.90
33023;DHT22;19390;51.460;5.710;2022-07-23T13:10:58;31.20;99.80
33023;DHT22;19390;51.460;5.710;2022-07-23T13:13:25;33.40;97.50
33023;DHT22;19390;51.460;5.710;2022-07-23T13:15:51;33.00;97.30
33023;DHT22;19390;51.460;5.710;2022-07-23T13:18:17;33.30;97.10
33023;DHT22;19390;51.460;5.710;2022-07-23T13:20:44;33.50;96.60
33023;DHT22;19390;51.460;5.710;2022-07-23T13:23:10;34.20;96.80
33023;DHT22;19390;51.460;5.710;2022-07-23T13:25:36;32.80;96.70
33023;DHT22;19390;51.460;5.710;2022-07-23T13:28:01;32.80;96.60
33023;DHT22;19390;51.460;5.710;2022-07-23T13:30:27;34.20;95.90
33023;DHT22;19390;51.460;5.710;2022-07-23T13:32:53;34.40;95.30
33023;DHT22;19390;51.460;5.710;2022-07-23T13:35:19;33.80;95.10
33023;DHT22;19390;51.460;5.710;2022-07-23T13:37:44;33.20;96.40
33023;DHT22;19390;51.460;5.710;2022-07-23T13:40:10;33.80;95.50
33023;DHT22;19390;51.460;5.710;2022-07-23T13:42:36;33.00;96.90
33023;DHT22;19390;51.460;5.710;2022-07-23T13:45:04;34.10;95.40
33023;DHT22;19390;51.460;5.710;2022-07-23T13:47:30;34.90;94.10
33023;DHT22;19390;51.460;5.710;2022-07-23T13:49:56;34.80;94.90
33023;DHT22;19390;51.460;5.710;2022-07-23T13:52:21;34.30;94.90
33023;DHT22;19390;51.460;5.710;2022-07-23T13:54:47;33.60;94.80
33023;DHT22;19390;51.460;5.710;2022-07-23T13:57:13;32.50;96.70
33023;DHT22;19390;51.460;5.710;2022-07-23T13:59:38;32.50;96.60
33023;DHT22;19390;51.460;5.710;2022-07-23T14:02:04;32.70;95.90
33023;DHT22;19390;51.460;5.710;2022-07-23T14:04:30;31.20;97.10
33023;DHT22;19390;51.460;5.710;2022-07-23T14:06:56;28.80;99.70
33023;DHT22;19390;51.460;5.710;2022-07-23T14:09:22;28.20;99.90
33023;DHT22;19390;51.460;5.710;2022-07-23T14:11:48;28.90;99.90
33023;DHT22;19390;51.460;5.710;2022-07-23T14:14:15;28.90;99.90
33023;DHT22;19390;51.460;5.710;2022-07-23T14:16:40;31.00;99.90
33023;DHT22;19390;51.460;5.710;2022-07-23T14:19:06;31.00;99.10
33023;DHT22;19390;51.460;5.710;2022-07-23T14:21:32;31.20;99.10
33023;DHT22;19390;51.460;5.710;2022-07-23T14:23:57;31.40;99.80
33023;DHT22;19390;51.460;5.710;2022-07-23T14:26:23;32.30;98.40
33023;DHT22;19390;51.460;5.710;2022-07-23T14:28:50;31.60;98.10
33023;DHT22;19390;51.460;5.710;2022-07-23T14:31:15;31.50;98.70
33023;DHT22;19390;51.460;5.710;2022-07-23T14:33:41;31.50;97.90
33023;DHT22;19390;51.460;5.710;2022-07-23T14:36:06;31.20;99.00
33023;DHT22;19390;51.460;5.710;2022-07-23T14:38:32;30.00;99.80
33023;DHT22;19390;51.460;5.710;2022-07-23T14:40:58;30.90;99.30
33023;DHT22;19390;51.460;5.710;2022-07-23T14:43:24;31.70;98.70
33023;DHT22;19390;51.460;5.710;2022-07-23T14:45:49;31.60;97.50
33023;DHT22;19390;51.460;5.710;2022-07-23T14:48:15;30.70;98.10
33023;DHT22;19390;51.460;5.710;2022-07-23T14:50:41;30.10;98.80
33023;DHT22;19390;51.460;5.710;2022-07-23T14:53:06;30.00;99.10
33023;DHT22;19390;51.460;5.710;2022-07-23T14:55:32;29.60;99.80
33023;DHT22;19390;51.460;5.710;2022-07-23T14:57:58;29.50;99.60
33023;DHT22;19390;51.460;5.710;2022-07-23T15:00:24;30.30;99.70
33023;DHT22;19390;51.460;5.710;2022-07-23T15:02:53;30.80;98.60
33023;DHT22;19390;51.460;5.710;2022-07-23T15:05:19;31.40;99.00
33023;DHT22;19390;51.460;5.710;2022-07-23T15:07:45;32.10;98.90
33023;DHT22;19390;51.460;5.710;2022-07-23T15:10:11;32.40;98.90
33023;DHT22;19390;51.460;5.710;2022-07-23T15:12:36;31.80;98.20
33023;DHT22;19390;51.460;5.710;2022-07-23T15:15:02;31.20;99.40
33023;DHT22;19390;51.460;5.710;2022-07-23T15:17:28;31.50;98.80
33023;DHT22;19390;51.460;5.710;2022-07-23T15:19:54;31.30;99.80
33023;DHT22;19390;51.460;5.710;2022-07-23T15:22:20;30.70;98.40
33023;DHT22;19390;51.460;5.710;2022-07-23T15:24:46;30.20;98.70
33023;DHT22;19390;51.460;5.710;2022-07-23T15:27:11;29.70;99.90
33023;DHT22;19390;51.460;5.710;2022-07-23T15:29:37;29.60;99.90
33023;DHT22;19390;51.460;5.710;2022-07-23T15:32:03;29.90;99.90
33023;DHT22;19390;51.460;5.710;2022-07-23T15:34:29;30.10;99.90
33023;DHT22;19390;51.460;5.710;2022-07-23T15:36:55;30.40;99.90
33023;DHT22;19390;51.460;5.710;2022-07-23T15:39:20;30.30;99.70
33023;DHT22;19390;51.460;5.710;2022-07-23T15:41:46;29.20;99.90
33023;DHT22;19390;51.460;5.710;2022-07-23T15:44:12;29.70;99.90
33023;DHT22;19390;51.460;5.710;2022-07-23T15:46:37;29.70;99.90
33023;DHT22;19390;51.460;5.710;2022-07-23T15:49:03;30.00;99.90
33023;DHT22;19390;51.460;5.710;2022-07-23T15:51:29;29.70;99.90
33023;DHT22;19390;51.460;5.710;2022-07-23T15:53:54;30.00;99.90
33023;DHT22;19390;51.460;5.710;2022-07-23T15:56:20;29.70;99.90
33023;DHT22;19390;51.460;5.710;2022-07-23T15:58:45;29.20;99.90
33023;DHT22;19390;51.460;5.710;2022-07-23T16:01:12;29.10;99.90
33023;DHT22;19390;51.460;5.710;2022-07-23T16:03:38;29.10;99.90
33023;DHT22;19390;51.460;5.710;2022-07-23T16:06:04;28.80;99.90
33023;DHT22;19390;51.460;5.710;2022-07-23T16:08:31;28.90;99.90
33023;DHT22;19390;51.460;5.710;2022-07-23T16:10:57;28.90;99.90
33023;DHT22;19390;51.460;5.710;2022-07-23T16:13:26;28.80;99.90
33023;DHT22;19390;51.460;5.710;2022-07-23T16:15:52;29.20;99.90
33023;DHT22;19390;51.460;5.710;2022-07-23T16:18:20;29.00;99.90
33023;DHT22;19390;51.460;5.710;2022-07-23T16:20:48;28.10;99.90
33023;DHT22;19390;51.460;5.710;2022-07-23T16:23:13;28.60;99.90